Harrisonburg, VA (22801)

7:24 PM EDT on September 04, 2015 (GMT -0400)
E. Rock Street Station | | Change Station
CLOSE
Current Station
Personal Weather Station
Location: Harrisonburg, VA
Elevation: 1348 ft
Nearby Weather Stations

Elev 1348 ft 38.45 °N, 78.86 °W | Updated 24 seconds ago

Partly Cloudy
Partly Cloudy
70.2 °F
Feels Like 70.2 °F
N
0.9
Wind Variable Wind from SE
Gusts 1.0 mph

Today
High -- | Low -- °F
--% Chance of Precip.
Yesterday
High -- | Low -- °F
Precip. -- in
6:47 AM 7:41 PM
Waning Gibbous, 55% visible
Pressure 30.12 in
Visibility 4.0 miles
Clouds Scattered Clouds 4800 ft
Mostly Cloudy 5500 ft
Mostly Cloudy 7000 ft
Dew Point 66 °F
Humidity 85%
Rainfall 0.13 in
Snow Depth Not available.
UV 0 out of 12
Pollen 9.30 out of 12
Air Quality Not available.
Flu Activity Not available.
METAR KSHD 042315Z AUTO 23004KT 4SM +RA SCT048 BKN055 BKN070 25/17 A3012 RMK AO2 LTG DSNT S P0001 T02450169
Pressure 30.12 in
Visibility 4.0 miles
Clouds Scattered Clouds 4800 ft
Mostly Cloudy 5500 ft
Mostly Cloudy 7000 ft
Dew Point 66 °F
Humidity 85%
Rainfall 0.13 in
Snow Depth Not available.
UV 0 out of 12
Pollen 9.30 out of 12
Air Quality Not available.
Flu Activity Not available.
METAR KSHD 042315Z AUTO 23004KT 4SM +RA SCT048 BKN055 BKN070 25/17 A3012 RMK AO2 LTG DSNT S P0001 T02450169

10-Day Weather Forecast

×

Almanac

Astronomy

Sep. 04, 2015 Rise Set
Actual Time
Civil Twilight
Nautical Twilight
Astronomical Twilight
Moon
Length of Visible Light
Length of Day
Tomorrow will be .
, % of the Moon is Illuminated

Today's Extremes

State Highs State Lows

Community

WunderPhotos

Upload Photos

1,852,332 photos uploaded!

WunderBlogs® & News

Nearby

Air Quality

  Air Quality AQ Index Pollutant
Not available.

Snow Depth

Station Depth Elevation

Earthquake Activity

City Distance Mag. Time & Date
Minimum magnitude displayed is 2.5.

Coastal Water Temperatures

Place Temperature

Stations

Nearby Weather Stations

Station Location Temp. Windchill Dew Point Humidity Wind Precip. Elev Updated Type